sensor_id;sensor_type;location;lat;lon;timestamp;pressure;altitude;pressure_sealevel;temperature;humidity
18275;BME280;19470;49.322;7.218;2023-12-29T00:01:01;98655.16;;;15.06;86.92
18275;BME280;19470;49.322;7.218;2023-12-29T00:03:28;98661.06;;;14.82;87.58
18275;BME280;19470;49.322;7.218;2023-12-29T00:05:54;98665.72;;;15.31;85.39
18275;BME280;19470;49.322;7.218;2023-12-29T00:08:25;98669.59;;;14.69;89.87
18275;BME280;19470;49.322;7.218;2023-12-29T00:10:52;98653.31;;;15.66;83.57
18275;BME280;19470;49.322;7.218;2023-12-29T00:13:19;98653.47;;;15.30;82.78
18275;BME280;19470;49.322;7.218;2023-12-29T00:15:49;98656.25;;;14.85;86.27
18275;BME280;19470;49.322;7.218;2023-12-29T00:18:17;98661.63;;;14.54;90.09
18275;BME280;19470;49.322;7.218;2023-12-29T00:20:44;98656.16;;;15.25;84.55
18275;BME280;19470;49.322;7.218;2023-12-29T00:23:10;98659.44;;;14.97;86.07
18275;BME280;19470;49.322;7.218;2023-12-29T00:25:37;98655.72;;;14.82;88.48
18275;BME280;19470;49.322;7.218;2023-12-29T00:28:05;98636.97;;;15.13;85.53
18275;BME280;19470;49.322;7.218;2023-12-29T00:30:32;98646.53;;;15.19;83.59
18275;BME280;19470;49.322;7.218;2023-12-29T00:32:59;98644.13;;;15.23;85.11
18275;BME280;19470;49.322;7.218;2023-12-29T00:35:25;98645.06;;;14.82;87.88
18275;BME280;19470;49.322;7.218;2023-12-29T00:37:52;98637.63;;;14.69;88.52
18275;BME280;19470;49.322;7.218;2023-12-29T00:40:18;98630.38;;;14.90;86.48
18275;BME280;19470;49.322;7.218;2023-12-29T00:42:45;98625.31;;;15.64;81.69
18275;BME280;19470;49.322;7.218;2023-12-29T00:45:16;98626.34;;;15.03;83.72
18275;BME280;19470;49.322;7.218;2023-12-29T00:47:42;98628.81;;;14.74;85.58
18275;BME280;19470;49.322;7.218;2023-12-29T00:50:09;98624.13;;;15.25;82.80
18275;BME280;19470;49.322;7.218;2023-12-29T00:52:35;98623.69;;;14.98;85.07
18275;BME280;19470;49.322;7.218;2023-12-29T00:55:03;98628.50;;;14.86;84.53
18275;BME280;19470;49.322;7.218;2023-12-29T00:57:29;98623.88;;;15.22;83.26
18275;BME280;19470;49.322;7.218;2023-12-29T00:59:56;98629.09;;;15.42;81.67
18275;BME280;19470;49.322;7.218;2023-12-29T01:02:23;98625.41;;;15.43;80.71
18275;BME280;19470;49.322;7.218;2023-12-29T01:04:50;98627.94;;;15.04;83.66
18275;BME280;19470;49.322;7.218;2023-12-29T01:07:16;98637.06;;;14.72;83.90
18275;BME280;19470;49.322;7.218;2023-12-29T01:09:43;98640.81;;;14.61;85.63
18275;BME280;19470;49.322;7.218;2023-12-29T01:12:09;98631.47;;;14.84;84.42
18275;BME280;19470;49.322;7.218;2023-12-29T01:14:36;98618.56;;;15.12;83.99
18275;BME280;19470;49.322;7.218;2023-12-29T01:17:03;98627.56;;;15.31;82.33
18275;BME280;19470;49.322;7.218;2023-12-29T01:19:31;98617.03;;;14.90;83.38
18275;BME280;19470;49.322;7.218;2023-12-29T01:21:58;98622.69;;;14.78;84.79
18275;BME280;19470;49.322;7.218;2023-12-29T01:24:24;98619.84;;;15.29;83.55
18275;BME280;19470;49.322;7.218;2023-12-29T01:26:51;98615.72;;;14.93;84.03
18275;BME280;19470;49.322;7.218;2023-12-29T01:29:17;98602.19;;;14.64;83.38
18275;BME280;19470;49.322;7.218;2023-12-29T01:31:43;98607.91;;;15.12;82.93
18275;BME280;19470;49.322;7.218;2023-12-29T01:34:10;98613.09;;;14.62;85.16
18275;BME280;19470;49.322;7.218;2023-12-29T01:36:38;98616.25;;;14.85;84.42
18275;BME280;19470;49.322;7.218;2023-12-29T01:39:05;98612.84;;;14.53;86.84
18275;BME280;19470;49.322;7.218;2023-12-29T01:41:31;98612.03;;;14.73;84.56
18275;BME280;19470;49.322;7.218;2023-12-29T01:44:20;98613.81;;;14.98;82.87
18275;BME280;19470;49.322;7.218;2023-12-29T01:46:49;98615.94;;;15.01;84.08
18275;BME280;19470;49.322;7.218;2023-12-29T01:49:16;98607.91;;;15.12;82.76
18275;BME280;19470;49.322;7.218;2023-12-29T01:51:48;98606.66;;;14.83;83.89
18275;BME280;19470;49.322;7.218;2023-12-29T01:54:16;98614.09;;;15.02;83.04
18275;BME280;19470;49.322;7.218;2023-12-29T01:56:43;98599.47;;;14.84;83.22
18275;BME280;19470;49.322;7.218;2023-12-29T01:59:10;98605.56;;;14.90;81.23
18275;BME280;19470;49.322;7.218;2023-12-29T02:01:38;98596.88;;;15.28;81.27
18275;BME280;19470;49.322;7.218;2023-12-29T02:04:05;98616.84;;;14.36;87.07
18275;BME280;19470;49.322;7.218;2023-12-29T02:06:33;98598.38;;;15.55;79.97
18275;BME280;19470;49.322;7.218;2023-12-29T02:09:02;98605.66;;;14.49;84.35
18275;BME280;19470;49.322;7.218;2023-12-29T02:11:30;98591.75;;;14.77;81.38
18275;BME280;19470;49.322;7.218;2023-12-29T02:13:57;98596.28;;;14.67;84.84
18275;BME280;19470;49.322;7.218;2023-12-29T02:16:32;98602.44;;;14.67;84.35
18275;BME280;19470;49.322;7.218;2023-12-29T02:19:01;98600.19;;;15.00;83.82
18275;BME280;19470;49.322;7.218;2023-12-29T02:21:30;98605.50;;;15.10;80.37
18275;BME280;19470;49.322;7.218;2023-12-29T02:23:57;98603.22;;;14.47;83.82
18275;BME280;19470;49.322;7.218;2023-12-29T02:26:28;98616.53;;;13.81;87.75
18275;BME280;19470;49.322;7.218;2023-12-29T02:32:07;98604.84;;;14.38;84.88
18275;BME280;19470;49.322;7.218;2023-12-29T02:34:38;98612.00;;;14.83;83.33
18275;BME280;19470;49.322;7.218;2023-12-29T02:37:08;98621.09;;;14.31;85.77
18275;BME280;19470;49.322;7.218;2023-12-29T02:39:36;98603.44;;;14.87;82.59
18275;BME280;19470;49.322;7.218;2023-12-29T02:42:04;98612.03;;;14.53;84.75
18275;BME280;19470;49.322;7.218;2023-12-29T02:44:31;98610.72;;;14.45;84.66
18275;BME280;19470;49.322;7.218;2023-12-29T02:46:57;98582.19;;;14.66;83.43
18275;BME280;19470;49.322;7.218;2023-12-29T02:49:25;98584.06;;;14.40;83.69
18275;BME280;19470;49.322;7.218;2023-12-29T02:51:52;98580.84;;;14.69;83.71
18275;BME280;19470;49.322;7.218;2023-12-29T02:54:18;98598.19;;;14.51;83.80
18275;BME280;19470;49.322;7.218;2023-12-29T02:56:45;98586.88;;;15.00;81.07
18275;BME280;19470;49.322;7.218;2023-12-29T02:59:12;98604.06;;;14.17;85.59
18275;BME280;19470;49.322;7.218;2023-12-29T03:01:39;98582.72;;;14.68;83.44
18275;BME280;19470;49.322;7.218;2023-12-29T03:04:05;98581.09;;;14.77;82.70
18275;BME280;19470;49.322;7.218;2023-12-29T03:06:32;98588.25;;;14.92;83.10
18275;BME280;19470;49.322;7.218;2023-12-29T03:08:58;98592.34;;;14.03;87.10
18275;BME280;19470;49.322;7.218;2023-12-29T03:11:25;98604.59;;;14.55;84.87
18275;BME280;19470;49.322;7.218;2023-12-29T03:13:51;98596.00;;;14.83;82.62
18275;BME280;19470;49.322;7.218;2023-12-29T03:16:19;98592.19;;;15.05;83.24
18275;BME280;19470;49.322;7.218;2023-12-29T03:18:45;98591.22;;;14.70;82.37
18275;BME280;19470;49.322;7.218;2023-12-29T03:21:12;98584.06;;;14.20;87.99
18275;BME280;19470;49.322;7.218;2023-12-29T03:23:39;98593.63;;;14.82;83.81
18275;BME280;19470;49.322;7.218;2023-12-29T03:26:05;98583.53;;;14.48;85.49
18275;BME280;19470;49.322;7.218;2023-12-29T03:28:32;98594.41;;;14.88;84.25
18275;BME280;19470;49.322;7.218;2023-12-29T03:30:58;98583.72;;;14.88;82.82
18275;BME280;19470;49.322;7.218;2023-12-29T03:33:26;98577.63;;;14.82;84.08
18275;BME280;19470;49.322;7.218;2023-12-29T03:35:53;98585.94;;;13.99;87.34
18275;BME280;19470;49.322;7.218;2023-12-29T03:38:19;98575.56;;;14.23;86.13
18275;BME280;19470;49.322;7.218;2023-12-29T03:40:45;98573.16;;;14.21;85.15
18275;BME280;19470;49.322;7.218;2023-12-29T03:43:12;98564.50;;;15.01;82.71
18275;BME280;19470;49.322;7.218;2023-12-29T03:45:38;98559.03;;;14.11;84.90
18275;BME280;19470;49.322;7.218;2023-12-29T03:48:05;98548.66;;;14.40;85.35
18275;BME280;19470;49.322;7.218;2023-12-29T03:50:35;98562.88;;;15.00;82.23
18275;BME280;19470;49.322;7.218;2023-12-29T03:53:01;98566.75;;;14.27;84.97
18275;BME280;19470;49.322;7.218;2023-12-29T03:55:28;98553.88;;;14.86;81.62
18275;BME280;19470;49.322;7.218;2023-12-29T03:57:54;98551.50;;;15.33;79.48
18275;BME280;19470;49.322;7.218;2023-12-29T04:00:21;98553.72;;;14.26;83.47
18275;BME280;19470;49.322;7.218;2023-12-29T04:02:47;98540.28;;;15.37;80.24
18275;BME280;19470;49.322;7.218;2023-12-29T04:05:14;98549.69;;;14.44;85.93
18275;BME280;19470;49.322;7.218;2023-12-29T04:07:41;98546.28;;;15.13;81.16
18275;BME280;19470;49.322;7.218;2023-12-29T04:10:08;98556.59;;;14.65;84.01
18275;BME280;19470;49.322;7.218;2023-12-29T04:12:35;98550.88;;;15.02;82.91
18275;BME280;19470;49.322;7.218;2023-12-29T04:15:01;98549.28;;;15.01;81.78
18275;BME280;19470;49.322;7.218;2023-12-29T04:17:28;98557.50;;;15.10;83.22
18275;BME280;19470;49.322;7.218;2023-12-29T04:19:54;98552.94;;;15.21;81.38
18275;BME280;19470;49.322;7.218;2023-12-29T04:22:21;98572.06;;;14.68;84.89
18275;BME280;19470;49.322;7.218;2023-12-29T04:24:48;98556.09;;;14.48;88.17
18275;BME280;19470;49.322;7.218;2023-12-29T04:27:15;98554.66;;;14.96;84.42
18275;BME280;19470;49.322;7.218;2023-12-29T04:29:43;98555.28;;;14.42;85.22
18275;BME280;19470;49.322;7.218;2023-12-29T04:32:09;98555.50;;;14.71;84.73
18275;BME280;19470;49.322;7.218;2023-12-29T04:34:36;98539.94;;;15.04;84.02
18275;BME280;19470;49.322;7.218;2023-12-29T04:37:02;98563.81;;;15.29;82.46
18275;BME280;19470;49.322;7.218;2023-12-29T04:39:29;98553.94;;;14.65;87.64
18275;BME280;19470;49.322;7.218;2023-12-29T04:41:57;98570.97;;;14.74;84.39
18275;BME280;19470;49.322;7.218;2023-12-29T04:44:23;98555.84;;;14.29;88.60
18275;BME280;19470;49.322;7.218;2023-12-29T04:46:50;98550.25;;;14.41;89.65
18275;BME280;19470;49.322;7.218;2023-12-29T04:49:16;98562.44;;;14.77;85.85
18275;BME280;19470;49.322;7.218;2023-12-29T04:51:43;98554.22;;;14.59;87.54
18275;BME280;19470;49.322;7.218;2023-12-29T04:54:10;98555.00;;;14.44;86.65
18275;BME280;19470;49.322;7.218;2023-12-29T04:56:36;98555.81;;;15.29;83.16
18275;BME280;19470;49.322;7.218;2023-12-29T04:59:04;98542.88;;;15.02;85.05
18275;BME280;19470;49.322;7.218;2023-12-29T05:01:30;98546.22;;;14.38;85.86
18275;BME280;19470;49.322;7.218;2023-12-29T05:03:57;98553.44;;;14.32;89.07
18275;BME280;19470;49.322;7.218;2023-12-29T05:06:23;98559.53;;;14.53;86.99
18275;BME280;19470;49.322;7.218;2023-12-29T05:08:49;98554.84;;;15.05;84.77
18275;BME280;19470;49.322;7.218;2023-12-29T05:11:16;98551.66;;;15.08;84.31
18275;BME280;19470;49.322;7.218;2023-12-29T05:13:42;98561.88;;;14.80;84.60
18275;BME280;19470;49.322;7.218;2023-12-29T05:16:10;98556.53;;;14.80;84.65
18275;BME280;19470;49.322;7.218;2023-12-29T05:18:37;98548.66;;;14.50;85.18
18275;BME280;19470;49.322;7.218;2023-12-29T05:21:04;98555.03;;;14.54;87.07
18275;BME280;19470;49.322;7.218;2023-12-29T05:23:30;98565.69;;;14.33;88.21
18275;BME280;19470;49.322;7.218;2023-12-29T05:25:56;98546.19;;;14.74;84.58
18275;BME280;19470;49.322;7.218;2023-12-29T05:28:23;98550.28;;;15.16;81.52
18275;BME280;19470;49.322;7.218;2023-12-29T05:30:49;98551.06;;;15.16;82.95
18275;BME280;19470;49.322;7.218;2023-12-29T05:33:17;98563.56;;;14.36;86.06
18275;BME280;19470;49.322;7.218;2023-12-29T05:35:43;98554.25;;;15.18;80.79
18275;BME280;19470;49.322;7.218;2023-12-29T05:38:10;98564.09;;;14.32;85.06
18275;BME280;19470;49.322;7.218;2023-12-29T05:40:36;98561.38;;;14.78;83.49
18275;BME280;19470;49.322;7.218;2023-12-29T05:43:03;98566.19;;;14.61;83.93
18275;BME280;19470;49.322;7.218;2023-12-29T05:45:29;98571.84;;;14.14;86.41
18275;BME280;19470;49.322;7.218;2023-12-29T05:47:56;98561.16;;;14.34;85.56
18275;BME280;19470;49.322;7.218;2023-12-29T05:50:24;98560.06;;;14.61;84.40
18275;BME280;19470;49.322;7.218;2023-12-29T05:52:50;98566.34;;;14.95;81.63
18275;BME280;19470;49.322;7.218;2023-12-29T05:55:17;98566.53;;;15.14;80.27
18275;BME280;19470;49.322;7.218;2023-12-29T05:57:44;98559.63;;;15.13;80.32
18275;BME280;19470;49.322;7.218;2023-12-29T06:00:11;98561.06;;;14.85;81.55
18275;BME280;19470;49.322;7.218;2023-12-29T06:02:39;98565.22;;;15.17;80.17
18275;BME280;19470;49.322;7.218;2023-12-29T06:05:06;98567.16;;;14.96;79.97
18275;BME280;19470;49.322;7.218;2023-12-29T06:07:34;98555.56;;;14.51;83.43
18275;BME280;19470;49.322;7.218;2023-12-29T06:10:01;98580.06;;;14.38;80.17
18275;BME280;19470;49.322;7.218;2023-12-29T06:12:27;98575.72;;;14.88;79.50
18275;BME280;19470;49.322;7.218;2023-12-29T06:14:54;98564.19;;;15.07;79.72
18275;BME280;19470;49.322;7.218;2023-12-29T06:17:20;98571.38;;;15.12;79.09
18275;BME280;19470;49.322;7.218;2023-12-29T06:19:46;98568.09;;;14.20;83.50
18275;BME280;19470;49.322;7.218;2023-12-29T06:22:13;98563.44;;;14.87;79.71
18275;BME280;19470;49.322;7.218;2023-12-29T06:24:41;98564.06;;;14.73;80.72
18275;BME280;19470;49.322;7.218;2023-12-29T06:27:08;98566.69;;;14.78;78.63
18275;BME280;19470;49.322;7.218;2023-12-29T06:29:35;98551.03;;;14.51;80.06
18275;BME280;19470;49.322;7.218;2023-12-29T06:32:03;98573.16;;;14.01;82.63
18275;BME280;19470;49.322;7.218;2023-12-29T06:34:30;98562.31;;;15.08;78.90
18275;BME280;19470;49.322;7.218;2023-12-29T06:36:56;98550.00;;;14.17;81.38
18275;BME280;19470;49.322;7.218;2023-12-29T06:39:23;98571.00;;;14.64;79.38
18275;BME280;19470;49.322;7.218;2023-12-29T06:41:51;98550.47;;;14.44;81.88
18275;BME280;19470;49.322;7.218;2023-12-29T06:44:17;98553.69;;;14.36;80.40
18275;BME280;19470;49.322;7.218;2023-12-29T06:46:43;98561.22;;;15.09;77.48
18275;BME280;19470;49.322;7.218;2023-12-29T06:49:10;98558.41;;;14.80;76.39
18275;BME280;19470;49.322;7.218;2023-12-29T06:51:36;98560.88;;;14.25;80.35
18275;BME280;19470;49.322;7.218;2023-12-29T07:00:48;98546.75;;;15.30;75.59
18275;BME280;19470;49.322;7.218;2023-12-29T07:03:14;98548.53;;;14.80;78.16
18275;BME280;19470;49.322;7.218;2023-12-29T07:05:41;98555.03;;;14.54;78.62
18275;BME280;19470;49.322;7.218;2023-12-29T07:08:08;98559.31;;;14.40;79.41
18275;BME280;19470;49.322;7.218;2023-12-29T07:10:34;98554.28;;;15.13;77.34
18275;BME280;19470;49.322;7.218;2023-12-29T07:13:01;98545.75;;;15.16;76.48
18275;BME280;19470;49.322;7.218;2023-12-29T07:15:27;98553.31;;;14.94;77.99
18275;BME280;19470;49.322;7.218;2023-12-29T07:17:55;98550.31;;;15.11;77.31
18275;BME280;19470;49.322;7.218;2023-12-29T07:20:21;98546.09;;;15.49;76.54
18275;BME280;19470;49.322;7.218;2023-12-29T07:22:48;98549.16;;;15.27;76.98
18275;BME280;19470;49.322;7.218;2023-12-29T07:25:14;98553.31;;;15.48;75.70
18275;BME280;19470;49.322;7.218;2023-12-29T07:27:41;98557.63;;;14.79;79.07
18275;BME280;19470;49.322;7.218;2023-12-29T07:30:08;98553.13;;;14.65;80.61
18275;BME280;19470;49.322;7.218;2023-12-29T07:32:35;98548.63;;;14.55;79.45
18275;BME280;19470;49.322;7.218;2023-12-29T07:35:03;98551.56;;;14.53;82.66
18275;BME280;19470;49.322;7.218;2023-12-29T07:37:30;98558.63;;;14.94;80.40
18275;BME280;19470;49.322;7.218;2023-12-29T07:39:56;98557.88;;;15.38;78.81
18275;BME280;19470;49.322;7.218;2023-12-29T07:42:22;98557.81;;;14.98;81.11
18275;BME280;19470;49.322;7.218;2023-12-29T07:44:49;98562.06;;;14.99;81.90
18275;BME280;19470;49.322;7.218;2023-12-29T07:47:16;98559.25;;;15.79;77.02
18275;BME280;19470;49.322;7.218;2023-12-29T07:49:43;98557.09;;;15.37;79.62
18275;BME280;19470;49.322;7.218;2023-12-29T07:52:11;98566.34;;;15.00;81.29
18275;BME280;19470;49.322;7.218;2023-12-29T07:54:37;98560.97;;;15.16;79.48
18275;BME280;19470;49.322;7.218;2023-12-29T07:57:04;98559.47;;;15.44;78.68
18275;BME280;19470;49.322;7.218;2023-12-29T07:59:30;98565.09;;;14.72;81.99
18275;BME280;19470;49.322;7.218;2023-12-29T08:01:57;98560.75;;;15.02;80.67
18275;BME280;19470;49.322;7.218;2023-12-29T08:04:23;98556.22;;;14.97;81.74
